Time;durP1;ratioP1;P1;durP2;ratioP2;P2;SDS_P1;SDS_P2;PMS_P1;PMS_P2;Temp;Humidity;BMP_temperature;BMP_pressure;BME280_temperature;BME280_humidity;BME280_pressure;Samples;Min_cycle;Max_cycle;Signal;HPM_P1;HPM_P2
2021/12/22 00:01:15;;;;;;;8.32;3.85;;;;;;;;;;5033599;28;20034;-36
2021/12/22 00:03:45;;;;;;;9.23;4.97;;;;;;;;;;5033406;28;20026;-36
2021/12/22 00:06:10;;;;;;;6.82;4.50;;;;;;;;;;5033668;28;20353;-36
2021/12/22 00:08:36;;;;;;;7.47;4.65;;;;;;;;;;5033357;28;20050;-35
2021/12/22 00:11:01;;;;;;;12.10;4.88;;;;;;;;;;5033063;28;20064;-36
2021/12/22 00:13:28;;;;;;;8.43;4.03;;;;;;;;;;5032631;28;20025;-36
2021/12/22 00:15:54;;;;;;;11.65;4.82;;;;;;;;;;5033505;28;20088;-36
2021/12/22 00:18:19;;;;;;;6.53;3.65;;;;;;;;;;5033141;28;20033;-36
2021/12/22 00:20:45;;;;;;;8.40;5.00;;;;;;;;;;5033008;28;20036;-36
2021/12/22 00:23:10;;;;;;;12.40;4.63;;;;;;;;;;5033152;28;20032;-35
2021/12/22 00:25:36;;;;;;;7.78;4.93;;;;;;;;;;5032984;28;20029;-36
2021/12/22 00:28:02;;;;;;;9.43;5.00;;;;;;;;;;5033105;28;20033;-36
2021/12/22 00:30:28;;;;;;;11.45;3.28;;;;;;;;;;5033042;28;20034;-36
2021/12/22 00:33:01;;;;;;;8.85;4.38;;;;;;;;;;5032853;28;20036;-36
2021/12/22 00:35:30;;;;;;;7.53;4.20;;;;;;;;;;5032782;28;20724;-36
2021/12/22 00:37:55;;;;;;;9.20;5.20;;;;;;;;;;5032983;28;20235;-35
2021/12/22 00:40:21;;;;;;;9.45;4.82;;;;;;;;;;5032644;28;20049;-36
2021/12/22 00:42:46;;;;;;;5.75;4.18;;;;;;;;;;5032630;28;20088;-36
2021/12/22 00:45:11;;;;;;;10.20;4.30;;;;;;;;;;5032989;28;20025;-36
2021/12/22 00:47:37;;;;;;;10.45;4.45;;;;;;;;;;5032937;28;20021;-36
2021/12/22 00:50:03;;;;;;;8.38;3.50;;;;;;;;;;5032658;28;20025;-35
2021/12/22 00:52:29;;;;;;;8.70;4.45;;;;;;;;;;5032744;28;20023;-36
2021/12/22 00:54:55;;;;;;;8.32;4.57;;;;;;;;;;5032524;28;20034;-35
2021/12/22 00:57:20;;;;;;;10.50;4.85;;;;;;;;;;5031116;28;20036;-36
2021/12/22 00:59:46;;;;;;;7.32;5.15;;;;;;;;;;5032679;28;20052;-35
2021/12/22 01:02:13;;;;;;;7.55;4.70;;;;;;;;;;5032476;28;20115;-36
2021/12/22 01:04:39;;;;;;;7.47;4.80;;;;;;;;;;5032396;28;20080;-36
2021/12/22 01:07:04;;;;;;;7.53;4.13;;;;;;;;;;5032586;28;20495;-36
2021/12/22 01:09:30;;;;;;;10.20;5.43;;;;;;;;;;5032280;28;20036;-35
2021/12/22 01:11:55;;;;;;;9.30;5.57;;;;;;;;;;5032602;28;20060;-36
2021/12/22 01:14:22;;;;;;;8.57;4.13;;;;;;;;;;5032133;28;20072;-36
2021/12/22 01:16:49;;;;;;;9.65;4.55;;;;;;;;;;5032314;28;20044;-36
2021/12/22 01:19:20;;;;;;;10.88;3.72;;;;;;;;;;5032302;28;20127;-36
2021/12/22 01:21:52;;;;;;;13.85;4.15;;;;;;;;;;5031927;28;20124;-36
2021/12/22 01:26:51;;;;;;;15.35;5.85;;;;;;;;;;5031924;28;20192;-36
2021/12/22 01:29:16;;;;;;;12.82;4.70;;;;;;;;;;5032247;28;20112;-36
2021/12/22 01:31:43;;;;;;;7.90;5.25;;;;;;;;;;5030483;28;20432;-36
2021/12/22 01:34:08;;;;;;;9.02;4.78;;;;;;;;;;5031813;28;20487;-36
2021/12/22 01:36:34;;;;;;;9.13;4.20;;;;;;;;;;5031928;28;20069;-36
2021/12/22 01:38:59;;;;;;;9.10;4.35;;;;;;;;;;5032047;28;20036;-36
2021/12/22 01:41:25;;;;;;;9.38;4.68;;;;;;;;;;5031574;28;20414;-35
2021/12/22 01:43:50;;;;;;;11.15;5.07;;;;;;;;;;5031577;28;20025;-36
2021/12/22 01:49:09;;;;;;;14.73;6.00;;;;;;;;;;5031643;28;20040;-36
2021/12/22 01:49:37;;;;;;;10.73;5.00;;;;;;;;;;5031883;28;20025;-36
2021/12/22 01:52:02;;;;;;;15.73;6.47;;;;;;;;;;5031505;28;20040;-35
2021/12/22 01:54:28;;;;;;;12.80;5.15;;;;;;;;;;5031757;28;20025;-35
2021/12/22 01:56:54;;;;;;;10.13;4.80;;;;;;;;;;5031348;28;20060;-36
2021/12/22 01:59:20;;;;;;;10.75;5.90;;;;;;;;;;5031750;28;20119;-35
2021/12/22 02:01:46;;;;;;;10.20;5.93;;;;;;;;;;5031556;28;20696;-36
2021/12/22 02:04:13;;;;;;;12.82;6.80;;;;;;;;;;5031362;28;20456;-36
2021/12/22 02:06:39;;;;;;;16.77;5.13;;;;;;;;;;5031594;28;20112;-36
2021/12/22 02:09:05;;;;;;;9.98;5.63;;;;;;;;;;5031309;28;20466;-36
2021/12/22 02:11:30;;;;;;;10.05;5.28;;;;;;;;;;5031378;28;20104;-36
2021/12/22 02:14:00;;;;;;;8.43;5.03;;;;;;;;;;5031431;28;20030;-36
2021/12/22 02:16:29;;;;;;;8.48;4.72;;;;;;;;;;5030209;28;20034;-35
2021/12/22 02:18:55;;;;;;;10.57;5.20;;;;;;;;;;5031196;28;20061;-36
2021/12/22 02:21:22;;;;;;;8.45;4.82;;;;;;;;;;5031168;28;20030;-36
2021/12/22 02:23:48;;;;;;;12.55;6.20;;;;;;;;;;5031002;28;20025;-36
2021/12/22 02:26:19;;;;;;;9.60;5.32;;;;;;;;;;5031217;28;20033;-36
2021/12/22 02:28:53;;;;;;;12.02;4.82;;;;;;;;;;5031304;28;20034;-36
2021/12/22 02:31:20;;;;;;;9.32;4.30;;;;;;;;;;5031165;28;20733;-36
2021/12/22 02:33:48;;;;;;;8.02;4.90;;;;;;;;;;5031011;28;20388;-36
2021/12/22 02:38:45;;;;;;;10.73;5.97;;;;;;;;;;5035040;28;20045;-36
2021/12/22 02:41:13;;;;;;;11.75;5.95;;;;;;;;;;5035018;28;20061;-36
2021/12/22 02:43:47;;;;;;;8.43;4.55;;;;;;;;;;5035080;28;20038;-36
2021/12/22 02:46:14;;;;;;;9.65;5.35;;;;;;;;;;5034962;28;20105;-36
2021/12/22 02:48:40;;;;;;;7.40;4.55;;;;;;;;;;5034858;28;20070;-36
2021/12/22 02:51:05;;;;;;;11.00;5.68;;;;;;;;;;5035115;28;20033;-36
2021/12/22 02:54:04;;;;;;;10.88;5.53;;;;;;;;;;5033639;28;20542;-35
2021/12/22 03:06:28;;;;;;;11.38;4.88;;;;;;;;;;5034902;28;20021;-36
2021/12/22 03:08:53;;;;;;;;;;;;;;;;;;5035224;28;20057;-36
2021/12/22 03:11:18;;;;;;;13.38;5.07;;;;;;;;;;5034577;28;20327;-36
2021/12/22 03:13:44;;;;;;;18.60;5.47;;;;;;;;;;5034365;28;20037;-36
2021/12/22 03:16:09;;;;;;;7.78;4.28;;;;;;;;;;5034388;28;20033;-36
2021/12/22 03:18:35;;;;;;;8.88;4.93;;;;;;;;;;5034659;28;20041;-36
2021/12/22 03:21:13;;;;;;;14.43;7.00;;;;;;;;;;5034339;28;20014;-36
2021/12/22 03:23:38;;;;;;;13.93;5.35;;;;;;;;;;5034516;28;20026;-36
2021/12/22 03:26:04;;;;;;;10.20;5.05;;;;;;;;;;5034528;28;20109;-35
2021/12/22 03:28:30;;;;;;;12.60;6.50;;;;;;;;;;5034172;28;20030;-36
2021/12/22 03:30:58;;;;;;;7.50;4.85;;;;;;;;;;5034353;28;20029;-35
2021/12/22 03:33:23;;;;;;;12.90;5.03;;;;;;;;;;5034325;28;20037;-36
2021/12/22 03:35:49;;;;;;;11.23;5.55;;;;;;;;;;5032691;28;20025;-35
2021/12/22 03:38:14;;;;;;;9.40;4.93;;;;;;;;;;5034301;28;20600;-36
2021/12/22 03:40:40;;;;;;;16.58;6.72;;;;;;;;;;5033618;28;20431;-36
2021/12/22 03:43:05;;;;;;;7.80;4.28;;;;;;;;;;5034162;28;20072;-36
2021/12/22 03:45:30;;;;;;;10.77;6.55;;;;;;;;;;5034256;28;20372;-35
2021/12/22 03:47:56;;;;;;;13.77;6.57;;;;;;;;;;5032383;28;20036;-36
2021/12/22 03:50:21;;;;;;;13.63;6.57;;;;;;;;;;5034155;28;20048;-36
2021/12/22 03:52:49;;;;;;;7.32;4.80;;;;;;;;;;5033878;28;20033;-36
2021/12/22 03:55:14;;;;;;;11.85;5.18;;;;;;;;;;5033670;28;20550;-36
2021/12/22 03:57:40;;;;;;;12.43;5.82;;;;;;;;;;5033539;28;20033;-35
2021/12/22 04:00:07;;;;;;;12.60;6.72;;;;;;;;;;5033935;28;20013;-36
2021/12/22 04:02:32;;;;;;;12.32;7.05;;;;;;;;;;5033521;28;20503;-36
2021/12/22 04:04:58;;;;;;;13.02;7.40;;;;;;;;;;5033354;28;20025;-36
2021/12/22 04:07:23;;;;;;;11.65;5.57;;;;;;;;;;5033636;28;20040;-35
2021/12/22 04:09:49;;;;;;;11.07;6.30;;;;;;;;;;5033579;28;20049;-36
2021/12/22 04:12:14;;;;;;;18.88;7.43;;;;;;;;;;5033495;28;20435;-36
2021/12/22 04:14:39;;;;;;;8.07;4.93;;;;;;;;;;5033447;28;20021;-36
2021/12/22 04:17:05;;;;;;;13.93;7.00;;;;;;;;;;5033185;28;20045;-35
2021/12/22 04:19:30;;;;;;;18.40;9.35;;;;;;;;;;5033330;28;20017;-35
2021/12/22 04:21:56;;;;;;;17.10;8.80;;;;;;;;;;5033225;28;20853;-36
2021/12/22 04:24:22;;;;;;;12.98;5.65;;;;;;;;;;5033145;28;20020;-35
2021/12/22 04:26:47;;;;;;;13.77;7.22;;;;;;;;;;5033092;28;20103;-36
2021/12/22 04:29:13;;;;;;;13.57;6.95;;;;;;;;;;5032990;28;20490;-35
2021/12/22 04:31:39;;;;;;;8.95;6.47;;;;;;;;;;5032528;28;20095;-36
2021/12/22 04:34:08;;;;;;;16.27;8.30;;;;;;;;;;5033240;28;20025;-35
2021/12/22 04:36:38;;;;;;;13.85;7.47;;;;;;;;;;5032856;28;20476;-36
2021/12/22 04:39:04;;;;;;;12.38;6.53;;;;;;;;;;5031645;28;20037;-36
2021/12/22 04:41:30;;;;;;;11.07;5.53;;;;;;;;;;5032771;28;20123;-36
2021/12/22 04:43:55;;;;;;;13.15;7.10;;;;;;;;;;5032636;28;20464;-36
2021/12/22 04:46:21;;;;;;;9.90;4.85;;;;;;;;;;5032874;28;20034;-35
2021/12/22 04:48:47;;;;;;;7.50;5.75;;;;;;;;;;5032692;28;20483;-36
2021/12/22 04:51:24;;;;;;;11.95;6.57;;;;;;;;;;5032764;28;20036;-36
2021/12/22 04:54:47;;;;;;;11.00;5.85;;;;;;;;;;5032546;28;20040;-36
2021/12/22 04:56:39;;;;;;;19.27;6.15;;;;;;;;;;5031858;28;20042;-36
2021/12/22 04:59:04;;;;;;;11.10;6.63;;;;;;;;;;5032277;28;20028;-36
2021/12/22 05:01:29;;;;;;;9.63;5.20;;;;;;;;;;5032540;28;20029;-36
2021/12/22 05:03:56;;;;;;;14.88;6.38;;;;;;;;;;5032474;28;20036;-36
2021/12/22 05:06:22;;;;;;;11.00;6.82;;;;;;;;;;5032379;28;20072;-38
2021/12/22 05:08:47;;;;;;;9.77;5.47;;;;;;;;;;5032538;28;20049;-36
2021/12/22 05:11:12;;;;;;;8.85;4.10;;;;;;;;;;5032371;28;20044;-36
2021/12/22 05:13:38;;;;;;;13.10;6.80;;;;;;;;;;5032357;28;20090;-35
2021/12/22 05:16:05;;;;;;;12.60;6.10;;;;;;;;;;5032611;28;20057;-35
2021/12/22 05:18:50;;;;;;;11.05;6.30;;;;;;;;;;5032093;28;20025;-36
2021/12/22 05:21:15;;;;;;;14.15;5.65;;;;;;;;;;5032336;28;20021;-35
2021/12/22 05:23:41;;;;;;;10.23;6.43;;;;;;;;;;5031978;28;20534;-36
2021/12/22 05:26:06;;;;;;;13.77;7.22;;;;;;;;;;5032308;28;20049;-36
2021/12/22 05:28:31;;;;;;;12.30;6.05;;;;;;;;;;5031021;28;20094;-35
2021/12/22 05:30:57;;;;;;;8.25;5.30;;;;;;;;;;5032074;28;20132;-36
2021/12/22 05:33:22;;;;;;;15.13;7.15;;;;;;;;;;5030638;28;20045;-36
2021/12/22 05:35:48;;;;;;;12.40;7.63;;;;;;;;;;5031729;28;20091;-35
2021/12/22 05:38:14;;;;;;;12.55;6.07;;;;;;;;;;5031818;28;20041;-36
2021/12/22 05:40:39;;;;;;;10.70;6.13;;;;;;;;;;5030158;28;20115;-36
2021/12/22 05:43:05;;;;;;;7.68;4.85;;;;;;;;;;5031722;28;20077;-35
2021/12/22 05:45:30;;;;;;;15.88;6.93;;;;;;;;;;5031741;28;20051;-36
2021/12/22 05:47:56;;;;;;;18.60;10.77;;;;;;;;;;5031582;28;20029;-36
2021/12/22 05:50:22;;;;;;;14.95;6.28;;;;;;;;;;5031651;28;20445;-36
2021/12/22 05:52:48;;;;;;;18.48;9.90;;;;;;;;;;5030194;28;20052;-36
2021/12/22 05:55:13;;;;;;;9.60;5.90;;;;;;;;;;5031593;28;20115;-36
2021/12/22 05:57:39;;;;;;;18.70;9.82;;;;;;;;;;5031380;28;20115;-35
2021/12/22 06:00:05;;;;;;;13.68;6.65;;;;;;;;;;5031528;28;20033;-36
2021/12/22 06:02:37;;;;;;;20.98;11.00;;;;;;;;;;5031474;28;20095;-36
2021/12/22 06:05:03;;;;;;;10.70;5.85;;;;;;;;;;5031659;28;20480;-36
2021/12/22 06:07:28;;;;;;;14.85;6.72;;;;;;;;;;5031434;28;20032;-35
2021/12/22 06:09:54;;;;;;;18.67;9.07;;;;;;;;;;5029059;28;20601;-36
2021/12/22 06:12:19;;;;;;;13.52;8.43;;;;;;;;;;5031454;28;20372;-36
2021/12/22 06:14:44;;;;;;;9.55;5.55;;;;;;;;;;5031119;28;20400;-35
2021/12/22 06:17:10;;;;;;;22.45;8.57;;;;;;;;;;5031099;28;20029;-36
2021/12/22 06:19:35;;;;;;;12.80;6.10;;;;;;;;;;5031555;28;20116;-36
2021/12/22 06:22:01;;;;;;;11.52;5.63;;;;;;;;;;5031240;28;20476;-36
2021/12/22 06:24:26;;;;;;;9.98;5.13;;;;;;;;;;5031484;28;20412;-35
2021/12/22 06:26:52;;;;;;;14.10;6.97;;;;;;;;;;5031443;28;20056;-36
2021/12/22 06:29:17;;;;;;;15.65;6.95;;;;;;;;;;5031563;28;20033;-36
2021/12/22 06:31:43;;;;;;;17.65;6.90;;;;;;;;;;5031349;28;20028;-35
2021/12/22 06:34:08;;;;;;;13.60;6.32;;;;;;;;;;5031408;28;20045;-35
2021/12/22 06:36:33;;;;;;;16.27;7.82;;;;;;;;;;5031146;28;20043;-36
2021/12/22 06:38:59;;;;;;;25.80;9.57;;;;;;;;;;5030966;28;20127;-36
2021/12/22 06:41:25;;;;;;;16.00;9.65;;;;;;;;;;5030992;28;20050;-35
2021/12/22 06:43:50;;;;;;;26.85;11.65;;;;;;;;;;5031004;28;20037;-35
2021/12/22 06:46:15;;;;;;;19.17;8.85;;;;;;;;;;5031004;28;20018;-36
2021/12/22 06:48:41;;;;;;;27.30;11.30;;;;;;;;;;5031187;28;20033;-35
2021/12/22 06:51:06;;;;;;;19.45;9.10;;;;;;;;;;5031028;28;20029;-35
2021/12/22 06:53:34;;;;;;;13.60;6.95;;;;;;;;;;5030881;28;20132;-35
2021/12/22 06:56:00;;;;;;;17.77;7.85;;;;;;;;;;5030920;28;20503;-36
2021/12/22 06:58:26;;;;;;;16.60;7.70;;;;;;;;;;5031148;28;20388;-35
2021/12/22 07:00:51;;;;;;;19.02;4.72;;;;;;;;;;5030780;28;20022;-36
2021/12/22 07:03:17;;;;;;;19.50;7.80;;;;;;;;;;5030905;28;20439;-36
2021/12/22 07:05:42;;;;;;;11.95;7.18;;;;;;;;;;5030860;28;20018;-35
2021/12/22 07:08:08;;;;;;;16.48;6.57;;;;;;;;;;5030826;28;20045;-36
2021/12/22 07:10:34;;;;;;;13.75;7.18;;;;;;;;;;5030915;28;20033;-36
2021/12/22 07:12:59;;;;;;;16.50;9.32;;;;;;;;;;5030961;28;20362;-35
2021/12/22 07:15:25;;;;;;;14.75;7.30;;;;;;;;;;5031089;28;20437;-36
2021/12/22 07:17:51;;;;;;;12.52;6.68;;;;;;;;;;5030657;28;20697;-36
2021/12/22 07:20:17;;;;;;;13.27;7.50;;;;;;;;;;5030777;28;20091;-36
2021/12/22 07:22:42;;;;;;;11.48;5.13;;;;;;;;;;5034181;28;20065;-36
2021/12/22 07:25:09;;;;;;;18.58;8.68;;;;;;;;;;5034310;28;20467;-36
2021/12/22 07:27:34;;;;;;;14.75;8.48;;;;;;;;;;5034594;28;20426;-36
2021/12/22 07:30:00;;;;;;;13.27;6.68;;;;;;;;;;5034386;28;20036;-36
2021/12/22 07:32:25;;;;;;;10.38;5.13;;;;;;;;;;5034123;28;20041;-36
2021/12/22 07:34:56;;;;;;;13.65;7.47;;;;;;;;;;5034008;28;20022;-35
2021/12/22 07:37:21;;;;;;;11.60;6.47;;;;;;;;;;5032805;28;20037;-35
2021/12/22 07:39:47;;;;;;;11.68;6.32;;;;;;;;;;5033817;28;20130;-36
2021/12/22 07:42:13;;;;;;;12.63;4.65;;;;;;;;;;5034281;28;20113;-36
2021/12/22 07:44:38;;;;;;;9.13;5.18;;;;;;;;;;5033865;28;20100;-36
2021/12/22 07:47:04;;;;;;;11.98;6.38;;;;;;;;;;5034192;28;20077;-36
2021/12/22 07:49:29;;;;;;;8.07;5.65;;;;;;;;;;5033851;28;20010;-36
2021/12/22 07:51:55;;;;;;;9.35;4.35;;;;;;;;;;5033771;28;20503;-36
2021/12/22 07:54:20;;;;;;;6.90;4.07;;;;;;;;;;5033978;28;20072;-36
2021/12/22 07:56:45;;;;;;;11.32;6.90;;;;;;;;;;5033827;28;20049;-36
2021/12/22 07:59:11;;;;;;;9.38;6.03;;;;;;;;;;5033685;28;20492;-35
2021/12/22 08:01:36;;;;;;;7.30;4.43;;;;;;;;;;5033634;28;20034;-35
2021/12/22 08:04:02;;;;;;;10.30;5.53;;;;;;;;;;5033462;28;20017;-36
2021/12/22 08:06:28;;;;;;;15.18;5.72;;;;;;;;;;5033575;28;20046;-35
2021/12/22 08:08:53;;;;;;;18.25;5.53;;;;;;;;;;5033474;28;20372;-36
2021/12/22 08:11:18;;;;;;;18.77;5.88;;;;;;;;;;5033743;28;20037;-36
2021/12/22 08:13:44;;;;;;;10.50;6.03;;;;;;;;;;5033284;28;20016;-36
2021/12/22 08:16:09;;;;;;;8.15;4.85;;;;;;;;;;5033321;28;20038;-36
2021/12/22 08:18:35;;;;;;;12.32;7.47;;;;;;;;;;5033246;28;20037;-36
2021/12/22 08:21:00;;;;;;;9.35;4.88;;;;;;;;;;5033308;28;20044;-35
2021/12/22 08:23:26;;;;;;;12.25;6.70;;;;;;;;;;5033554;28;20032;-35
2021/12/22 08:25:52;;;;;;;11.80;5.10;;;;;;;;;;5033034;28;20607;-35
2021/12/22 08:28:17;;;;;;;5.70;4.03;;;;;;;;;;5033181;28;20021;-36
2021/12/22 08:30:43;;;;;;;12.45;5.35;;;;;;;;;;5033077;28;20033;-36
2021/12/22 08:33:45;;;;;;;11.95;4.72;;;;;;;;;;5032191;28;20023;-35
2021/12/22 08:38:52;;;;;;;13.00;4.95;;;;;;;;;;5032954;28;20657;-36
2021/12/22 08:41:19;;;;;;;12.32;5.32;;;;;;;;;;5032841;28;20057;-36
2021/12/22 08:43:45;;;;;;;9.25;5.00;;;;;;;;;;5032713;28;20395;-36
2021/12/22 08:46:10;;;;;;;5.95;3.25;;;;;;;;;;5032752;28;20121;-35
2021/12/22 08:48:36;;;;;;;8.30;4.70;;;;;;;;;;5033126;28;20379;-36
2021/12/22 08:51:02;;;;;;;18.50;6.45;;;;;;;;;;5032990;28;20423;-36
2021/12/22 08:53:27;;;;;;;10.80;6.20;;;;;;;;;;5031411;28;20021;-36
2021/12/22 08:55:53;;;;;;;7.30;4.30;;;;;;;;;;5032575;28;20033;-36
2021/12/22 08:58:18;;;;;;;11.10;4.40;;;;;;;;;;5032584;28;20072;-35
2021/12/22 09:00:44;;;;;;;6.95;4.55;;;;;;;;;;5032434;28;20415;-36
2021/12/22 09:03:09;;;;;;;8.45;4.03;;;;;;;;;;5031282;28;20026;-36
2021/12/22 09:05:35;;;;;;;10.70;5.10;;;;;;;;;;5032474;28;20044;-36
2021/12/22 09:08:00;;;;;;;8.02;4.85;;;;;;;;;;5032289;28;20116;-36
2021/12/22 09:10:26;;;;;;;4.43;3.42;;;;;;;;;;5032363;28;20033;-35
2021/12/22 09:12:51;;;;;;;11.50;6.15;;;;;;;;;;5032157;28;20079;-36
2021/12/22 09:15:17;;;;;;;12.38;5.60;;;;;;;;;;5032233;28;20033;-36
2021/12/22 09:17:43;;;;;;;11.27;5.40;;;;;;;;;;5032062;28;20107;-35
2021/12/22 09:20:09;;;;;;;8.63;4.65;;;;;;;;;;5032206;28;20025;-36
2021/12/22 09:22:34;;;;;;;8.20;5.60;;;;;;;;;;5031965;28;20034;-37
2021/12/22 09:25:00;;;;;;;10.02;3.72;;;;;;;;;;5032269;28;20033;-36
2021/12/22 09:27:25;;;;;;;10.55;5.15;;;;;;;;;;5032067;28;20488;-35
2021/12/22 09:29:51;;;;;;;8.57;4.82;;;;;;;;;;5031827;28;20103;-36
2021/12/22 09:32:17;;;;;;;12.63;5.25;;;;;;;;;;5031889;28;20053;-37
2021/12/22 09:34:44;;;;;;;9.05;4.90;;;;;;;;;;5031808;28;20025;-35
2021/12/22 09:37:10;;;;;;;7.75;4.97;;;;;;;;;;5031801;28;20044;-36
2021/12/22 09:39:35;;;;;;;5.57;4.07;;;;;;;;;;5031656;28;20029;-36
2021/12/22 09:42:01;;;;;;;10.45;3.83;;;;;;;;;;5031761;28;20112;-35
2021/12/22 09:44:31;;;;;;;6.68;4.13;;;;;;;;;;5031544;28;20029;-36
2021/12/22 09:46:57;;;;;;;8.40;3.63;;;;;;;;;;5031682;28;20033;-36
2021/12/22 09:52:16;;;;;;;13.38;6.60;;;;;;;;;;5031897;28;20049;-36
2021/12/22 09:54:42;;;;;;;7.65;4.30;;;;;;;;;;5031609;28;20618;-36
2021/12/22 09:57:08;;;;;;;9.02;4.70;;;;;;;;;;5031370;28;20033;-35
2021/12/22 09:59:33;;;;;;;12.55;6.03;;;;;;;;;;5031825;28;20022;-35
2021/12/22 10:01:59;;;;;;;12.80;5.65;;;;;;;;;;5031466;28;20104;-35
2021/12/22 10:04:24;;;;;;;9.05;4.78;;;;;;;;;;5031370;28;20036;-35
2021/12/22 10:06:50;;;;;;;10.05;5.50;;;;;;;;;;5031615;28;20049;-36
2021/12/22 10:09:21;;;;;;;9.25;5.45;;;;;;;;;;5031719;28;20033;-36
2021/12/22 10:11:47;;;;;;;16.23;6.38;;;;;;;;;;5031203;28;20033;-36
2021/12/22 10:14:18;;;;;;;8.15;3.67;;;;;;;;;;5031634;28;20427;-36
2021/12/22 10:16:48;;;;;;;3.03;2.10;;;;;;;;;;5029966;28;20060;-37
2021/12/22 10:19:13;;;;;;;8.88;4.13;;;;;;;;;;5031253;28;20030;-36
2021/12/22 10:21:56;;;;;;;5.50;3.55;;;;;;;;;;5031585;28;20028;-36
2021/12/22 10:24:38;;;;;;;6.63;3.13;;;;;;;;;;5031273;28;20025;-36
2021/12/22 10:27:06;;;;;;;7.15;4.13;;;;;;;;;;5031428;28;20446;-35
2021/12/22 10:29:32;;;;;;;9.45;4.43;;;;;;;;;;5031441;28;20460;-36
2021/12/22 10:32:06;;;;;;;10.32;4.07;;;;;;;;;;5031118;28;20037;-36
2021/12/22 10:34:31;;;;;;;12.40;5.00;;;;;;;;;;5031108;28;20033;-36
2021/12/22 10:36:57;;;;;;;6.78;3.47;;;;;;;;;;5031002;28;20038;-36
2021/12/22 10:39:27;;;;;;;6.47;4.40;;;;;;;;;;5030953;28;20025;-36
2021/12/22 10:41:52;;;;;;;8.38;3.67;;;;;;;;;;5030987;28;20484;-36
2021/12/22 10:44:19;;;;;;;9.98;4.30;;;;;;;;;;5031082;28;20072;-36
2021/12/22 10:46:46;;;;;;;7.55;4.75;;;;;;;;;;5030948;28;20026;-36
2021/12/22 10:49:20;;;;;;;7.50;4.18;;;;;;;;;;5031326;28;20042;-36
2021/12/22 10:51:56;;;;;;;10.88;4.93;;;;;;;;;;5031221;28;20117;-35
2021/12/22 10:54:28;;;;;;;7.55;2.58;;;;;;;;;;5031171;28;20032;-35
2021/12/22 10:56:57;;;;;;;6.78;3.85;;;;;;;;;;5033059;28;20476;-37
2021/12/22 10:59:22;;;;;;;7.72;3.83;;;;;;;;;;5035107;28;20052;-36
2021/12/22 11:01:56;;;;;;;8.30;3.88;;;;;;;;;;5034898;28;20107;-35
2021/12/22 11:04:26;;;;;;;6.55;4.10;;;;;;;;;;5034661;28;20037;-36
2021/12/22 11:06:54;;;;;;;6.85;4.68;;;;;;;;;;5034871;28;20029;-36
2021/12/22 11:09:20;;;;;;;12.30;5.88;;;;;;;;;;5034621;28;20435;-36
2021/12/22 11:11:48;;;;;;;8.30;4.78;;;;;;;;;;5034813;28;20104;-36
2021/12/22 11:14:27;;;;;;;7.38;3.65;;;;;;;;;;5034501;28;20548;-36
2021/12/22 11:16:52;;;;;;;10.18;4.75;;;;;;;;;;5034238;28;20037;-37
2021/12/22 11:19:18;;;;;;;11.60;5.30;;;;;;;;;;5034710;28;20022;-35
2021/12/22 11:22:07;;;;;;;14.60;7.70;;;;;;;;;;5034708;28;20033;-36
2021/12/22 11:24:34;;;;;;;10.10;5.50;;;;;;;;;;5034316;28;20041;-36
2021/12/22 11:26:59;;;;;;;8.48;5.30;;;;;;;;;;5034183;28;20108;-36
2021/12/22 11:29:25;;;;;;;10.73;6.00;;;;;;;;;;5034243;28;20113;-35
2021/12/22 11:31:52;;;;;;;9.57;4.93;;;;;;;;;;5034117;28;20044;-36
2021/12/22 11:34:18;;;;;;;15.27;6.15;;;;;;;;;;5034098;28;20494;-36
2021/12/22 11:36:44;;;;;;;8.35;4.35;;;;;;;;;;5034011;28;20060;-36
2021/12/22 11:39:10;;;;;;;10.45;4.32;;;;;;;;;;5034311;28;20072;-36
2021/12/22 11:41:43;;;;;;;6.63;4.13;;;;;;;;;;5033893;28;20073;-36
2021/12/22 11:44:09;;;;;;;12.30;4.07;;;;;;;;;;5034113;28;20484;-36
2021/12/22 11:46:35;;;;;;;9.20;5.35;;;;;;;;;;5034015;28;20041;-36
2021/12/22 11:49:01;;;;;;;17.67;5.97;;;;;;;;;;5033820;28;20502;-35
2021/12/22 11:51:27;;;;;;;12.05;5.05;;;;;;;;;;5033787;28;20021;-36
2021/12/22 11:53:57;;;;;;;7.50;4.82;;;;;;;;;;5033662;28;20034;-36
2021/12/22 11:56:41;;;;;;;18.77;6.32;;;;;;;;;;5034075;28;20048;-36
2021/12/22 11:59:23;;;;;;;14.00;6.00;;;;;;;;;;5033841;28;20373;-35
2021/12/22 12:02:07;;;;;;;11.07;5.65;;;;;;;;;;5033895;28;20059;-35
2021/12/22 12:04:34;;;;;;;7.30;4.38;;;;;;;;;;5033618;28;20022;-36
2021/12/22 12:07:00;;;;;;;11.63;6.00;;;;;;;;;;5033149;28;20032;-36
2021/12/22 12:09:29;;;;;;;9.32;5.80;;;;;;;;;;5033094;28;20029;-38
2021/12/22 12:11:56;;;;;;;9.73;6.30;;;;;;;;;;5033697;28;20021;-36
2021/12/22 12:14:38;;;;;;;5.80;3.85;;;;;;;;;;5033736;28;20057;-35
2021/12/22 12:23:16;;;;;;;7.90;4.97;;;;;;;;;;5033198;28;20136;-36
2021/12/22 12:25:41;;;;;;;12.68;5.15;;;;;;;;;;5033498;28;20072;-35
2021/12/22 12:28:14;;;;;;;11.13;4.90;;;;;;;;;;5033365;28;20459;-36
2021/12/22 12:30:45;;;;;;;8.27;4.35;;;;;;;;;;5033494;28;20032;-36
2021/12/22 12:33:21;;;;;;;13.60;5.13;;;;;;;;;;5032969;28;20083;-36
2021/12/22 12:35:54;;;;;;;9.55;3.75;;;;;;;;;;5033165;28;20114;-36
2021/12/22 12:38:27;;;;;;;10.88;4.47;;;;;;;;;;5033172;28;20060;-36
2021/12/22 12:40:58;;;;;;;9.38;5.25;;;;;;;;;;5032701;28;20041;-35
2021/12/22 12:43:45;;;;;;;9.02;4.13;;;;;;;;;;5033146;28;20091;-36
2021/12/22 12:46:34;;;;;;;10.52;5.45;;;;;;;;;;5032872;28;20065;-35
2021/12/22 12:49:02;;;;;;;8.60;3.72;;;;;;;;;;5033194;28;20060;-36
2021/12/22 12:51:31;;;;;;;10.15;4.50;;;;;;;;;;5033077;28;20021;-36
2021/12/22 12:53:58;;;;;;;8.65;5.53;;;;;;;;;;5032875;28;20033;-36
2021/12/22 12:56:29;;;;;;;10.43;5.80;;;;;;;;;;5032641;28;20079;-35
2021/12/22 12:58:57;;;;;;;12.30;4.38;;;;;;;;;;5032505;28;20045;-36
2021/12/22 13:01:41;;;;;;;8.60;3.92;;;;;;;;;;5032559;28;20487;-36
2021/12/22 13:04:20;;;;;;;7.63;4.88;;;;;;;;;;5032278;28;20468;-36
2021/12/22 13:06:47;;;;;;;6.32;3.63;;;;;;;;;;5032767;28;20036;-36
2021/12/22 13:09:22;;;;;;;10.40;5.40;;;;;;;;;;5032417;28;20021;-36
2021/12/22 13:11:57;;;;;;;20.67;5.60;;;;;;;;;;5032277;28;20030;-36
2021/12/22 13:17:13;;;;;;;8.20;4.80;;;;;;;;;;5032469;28;20041;-35
2021/12/22 13:19:43;;;;;;;6.85;4.80;;;;;;;;;;5031817;28;20048;-36
2021/12/22 13:22:27;;;;;;;9.25;4.38;;;;;;;;;;5032008;28;20034;-36
2021/12/22 13:25:14;;;;;;;11.20;5.55;;;;;;;;;;5031995;28;20060;-35
2021/12/22 13:27:40;;;;;;;8.55;4.55;;;;;;;;;;5031944;28;20120;-36
2021/12/22 13:30:11;;;;;;;7.82;4.70;;;;;;;;;;5031901;28;20033;-36
2021/12/22 13:32:53;;;;;;;7.63;5.22;;;;;;;;;;5031859;28;20037;-36
2021/12/22 13:35:37;;;;;;;9.60;4.45;;;;;;;;;;5031963;28;20025;-35
2021/12/22 13:38:05;;;;;;;5.30;3.95;;;;;;;;;;5031915;28;20045;-37
2021/12/22 13:40:42;;;;;;;6.05;3.78;;;;;;;;;;5031828;28;20057;-37
2021/12/22 13:43:28;;;;;;;3.72;2.28;;;;;;;;;;5031679;28;20034;-35
2021/12/22 13:45:55;;;;;;;7.95;3.88;;;;;;;;;;5031386;28;20037;-36
2021/12/22 13:48:25;;;;;;;5.90;4.43;;;;;;;;;;5031715;28;20028;-36
2021/12/22 13:50:51;;;;;;;10.23;5.22;;;;;;;;;;5031569;28;20037;-36
2021/12/22 13:53:18;;;;;;;8.10;4.15;;;;;;;;;;5030593;28;20028;-36
2021/12/22 13:55:44;;;;;;;12.05;6.53;;;;;;;;;;5031927;28;20431;-36
2021/12/22 13:58:29;;;;;;;10.65;5.28;;;;;;;;;;5031402;28;20079;-36
2021/12/22 14:01:13;;;;;;;6.30;3.55;;;;;;;;;;5031384;28;20112;-40
2021/12/22 14:03:38;;;;;;;10.18;5.20;;;;;;;;;;5031487;28;20033;-36
2021/12/22 14:06:06;;;;;;;16.70;6.70;;;;;;;;;;5031639;28;20486;-36
2021/12/22 14:08:32;;;;;;;13.75;4.88;;;;;;;;;;5031761;28;20057;-36
2021/12/22 14:10:57;;;;;;;7.68;4.93;;;;;;;;;;5031408;28;20099;-35
2021/12/22 14:13:27;;;;;;;9.20;5.38;;;;;;;;;;5031368;28;20025;-36
2021/12/22 14:15:53;;;;;;;8.23;4.50;;;;;;;;;;5031639;28;20104;-36
2021/12/22 14:18:19;;;;;;;6.50;3.72;;;;;;;;;;5031214;28;20037;-36
2021/12/22 14:20:45;;;;;;;8.00;4.60;;;;;;;;;;5031571;28;20028;-36
2021/12/22 14:23:10;;;;;;;14.45;6.55;;;;;;;;;;5031198;28;20758;-36
2021/12/22 14:25:37;;;;;;;9.38;4.80;;;;;;;;;;5029954;28;20095;-36
2021/12/22 14:28:23;;;;;;;11.80;5.65;;;;;;;;;;5031139;28;20029;-36
2021/12/22 14:30:49;;;;;;;9.95;4.97;;;;;;;;;;5031596;28;20029;-36
2021/12/22 14:33:21;;;;;;;16.00;4.97;;;;;;;;;;5035564;28;20409;-35
2021/12/22 14:35:58;;;;;;;11.27;5.45;;;;;;;;;;5035451;28;20040;-36
2021/12/22 14:38:25;;;;;;;9.48;5.18;;;;;;;;;;5035508;28;20049;-36
2021/12/22 14:40:50;;;;;;;9.90;5.32;;;;;;;;;;5034944;28;20037;-36
2021/12/22 14:43:16;;;;;;;6.55;3.92;;;;;;;;;;5035034;28;20121;-36
2021/12/22 14:45:44;;;;;;;10.02;5.10;;;;;;;;;;5035096;28;20071;-36
2021/12/22 14:48:14;;;;;;;8.55;5.78;;;;;;;;;;5035284;28;20033;-36
2021/12/22 14:50:59;;;;;;;11.27;5.55;;;;;;;;;;5035002;28;20037;-36
2021/12/22 14:53:40;;;;;;;10.27;5.30;;;;;;;;;;5035201;28;20053;-36
2021/12/22 14:56:10;;;;;;;10.80;4.65;;;;;;;;;;5034810;28;20091;-36
2021/12/22 14:58:36;;;;;;;13.57;5.88;;;;;;;;;;5034809;28;20049;-36
2021/12/22 15:01:03;;;;;;;14.25;6.93;;;;;;;;;;5033809;28;20091;-36
2021/12/22 15:03:29;;;;;;;10.10;5.57;;;;;;;;;;5034967;28;20112;-36
2021/12/22 15:05:56;;;;;;;13.05;5.85;;;;;;;;;;5034688;28;20108;-36
2021/12/22 15:08:22;;;;;;;9.23;4.93;;;;;;;;;;5034616;28;20030;-36
2021/12/22 15:10:48;;;;;;;11.27;5.63;;;;;;;;;;5033425;28;20044;-36